Lubbock, TX

6:41 PM CDT on April 24, 2017 (GMT -0500)
Maxey Park | | Change Station

Elev 3237 ft 33.57 °N, 101.89 °W | Updated 33 seconds ago

Partly Cloudy
Partly Cloudy
90.9 °F
Feels Like 87 °F
N
4.2
Wind Variable Wind from SSW

Today
High -- | Low -- °F
--% Chance of Precip.
Yesterday
High -- | Low -- °F
Precip. -- in
Pressure 29.41 in
Visibility 10.0 miles
Clouds Scattered Clouds 25000 ft
Mostly Cloudy 30000 ft
Heat Index 87 °F
Dew Point 24 °F
Humidity 9%
Rainfall 0.00 in
Snow Depth Not available.
7:06 AM 8:25 PM
Waning Crescent, 3% visible
METAR KLBB 242253Z COR 23023G32KT 10SM SCT250 BKN300 34/M09 A2955 RMK AO2 BKN LYR THN PK WND 24032/2248 SLP957 T03441094
Pressure 29.41 in
Visibility 10.0 miles
Clouds Scattered Clouds 25000 ft
Mostly Cloudy 30000 ft
Heat Index 87 °F
Dew Point 24 °F
Humidity 9%
Rainfall 0.00 in
Snow Depth Not available.
7:06 AM 8:25 PM
Waning Crescent, 3% visible
METAR KLBB 242253Z COR 23023G32KT 10SM SCT250 BKN300 34/M09 A2955 RMK AO2 BKN LYR THN PK WND 24032/2248 SLP957 T03441094

Get Severe Weather Alerts

Thanks for signing up!

Be on the lookout for a verification email in your inbox.

You'll start receiving the daily forecast at 8 AM.

×

10-Day Weather Forecast

Almanac

Astronomy

Apr. 24, 2017 Rise Set
Actual Time
Civil Twilight
Nautical Twilight
Astronomical Twilight
Moon
Length of Visible Light
Length of Day
Tomorrow will be .
, % of the Moon is Illuminated

Today's Extremes

State Highs State Lows

Community

WunderPhotos

WunderBlog® & News

Nearby

Air Quality

  Air Quality AQ Index Pollutant
Not available.

Snow Depth

Station Depth Elevation

Earthquake Activity

City Distance Mag. Time & Date
Minimum magnitude displayed is 2.5.

Coastal Water Temperatures

Place Temperature

Stations

Nearby Weather Stations

Station Location Temp. Windchill Dew Point Humidity Wind Precip. Elev Updated Type
                   

Watches & Warnings

There are currently no watches in effect.